createdAt,value
2022-07-31T00:01:36.925Z,21.50
2022-07-31T00:04:10.869Z,21.60
2022-07-31T00:06:42.726Z,21.50
2022-07-31T00:09:49.174Z,23.50
2022-07-31T00:12:02.088Z,21.50
2022-07-31T00:14:29.977Z,21.50
2022-07-31T00:16:58.789Z,21.50
2022-07-31T00:19:29.420Z,22.20
2022-07-31T00:21:58.662Z,22.20
2022-07-31T00:24:27.197Z,21.40
2022-07-31T00:27:08.562Z,21.70
2022-07-31T00:29:36.744Z,21.40
2022-07-31T00:32:05.127Z,21.50
2022-07-31T00:34:38.633Z,21.60
2022-07-31T00:37:07.038Z,21.30
2022-07-31T00:39:35.050Z,21.30
2022-07-31T00:42:06.916Z,21.30
2022-07-31T00:44:40.327Z,21.50
2022-07-31T00:47:09.222Z,21.50
2022-07-31T00:49:38.073Z,21.30
2022-07-31T00:52:06.455Z,21.30
2022-07-31T00:54:34.906Z,21.30
2022-07-31T00:57:11.421Z,21.20
2022-07-31T00:59:46.823Z,21.30
2022-07-31T01:02:15.003Z,21.30
2022-07-31T01:04:44.556Z,21.30
2022-07-31T01:07:14.089Z,21.30
2022-07-31T01:09:45.008Z,21.20
2022-07-31T01:12:22.595Z,21.20
2022-07-31T01:14:52.657Z,20.60
2022-07-31T01:17:22.517Z,21.10
2022-07-31T01:19:52.023Z,21.30
2022-07-31T01:22:40.333Z,21.40
2022-07-31T01:25:17.787Z,21.20
2022-07-31T01:27:57.114Z,21.20
2022-07-31T01:30:30.723Z,21.20
2022-07-31T01:33:02.848Z,21.70
2022-07-31T01:35:34.617Z,21.10
2022-07-31T01:38:11.393Z,20.90
2022-07-31T01:40:52.309Z,21.10
2022-07-31T01:43:26.930Z,21.30
2022-07-31T01:46:47.032Z,21.70
2022-07-31T01:49:28.395Z,21.20
2022-07-31T01:52:04.294Z,21.30
2022-07-31T01:54:34.152Z,21.10
2022-07-31T01:57:03.198Z,21.10
2022-07-31T01:59:38.180Z,21.10
2022-07-31T02:02:18.827Z,21.10
2022-07-31T02:04:47.963Z,21.40
2022-07-31T02:07:16.849Z,21.10
2022-07-31T02:12:54.121Z,21.00
2022-07-31T02:15:22.697Z,21.00
2022-07-31T02:17:52.658Z,21.10
2022-07-31T02:20:27.176Z,20.90
2022-07-31T02:23:08.518Z,20.90
2022-07-31T02:28:51.094Z,20.80
2022-07-31T02:31:21.795Z,21.70
2022-07-31T02:33:50.339Z,20.90
2022-07-31T02:36:22.255Z,20.90
2022-07-31T02:38:59.217Z,21.90
2022-07-31T02:41:31.310Z,20.90
2022-07-31T02:43:59.623Z,21.00
2022-07-31T02:46:28.194Z,20.70
2022-07-31T02:48:57.086Z,20.90
2022-07-31T02:51:25.253Z,20.90
2022-07-31T02:53:54.561Z,20.90
2022-07-31T02:56:25.308Z,20.80
2022-07-31T02:58:53.350Z,20.90
2022-07-31T03:01:37.699Z,20.80
2022-07-31T03:04:08.464Z,20.70
2022-07-31T03:06:36.607Z,20.60
2022-07-31T03:09:04.487Z,20.60
2022-07-31T03:11:36.750Z,20.70
2022-07-31T03:14:05.513Z,20.60
2022-07-31T03:16:34.582Z,20.60
2022-07-31T03:19:04.507Z,18.50
2022-07-31T03:21:33.174Z,20.80
2022-07-31T03:24:01.882Z,20.50
2022-07-31T03:26:31.099Z,20.40
2022-07-31T03:29:01.729Z,20.60
2022-07-31T03:31:30.291Z,20.40
2022-07-31T03:33:59.269Z,20.40
2022-07-31T03:36:33.259Z,20.40
2022-07-31T03:39:01.976Z,20.30
2022-07-31T03:41:39.939Z,20.30
2022-07-31T03:44:14.192Z,20.30
2022-07-31T03:46:42.546Z,20.20
2022-07-31T03:49:10.585Z,20.20
2022-07-31T03:51:39.443Z,20.20
2022-07-31T03:54:07.590Z,20.20
2022-07-31T03:56:48.960Z,20.30
2022-07-31T03:59:21.657Z,20.50
2022-07-31T04:01:57.911Z,20.30
2022-07-31T04:04:49.740Z,20.10
2022-07-31T04:07:17.433Z,20.30
2022-07-31T04:09:48.560Z,20.20
2022-07-31T04:12:22.707Z,20.10
2022-07-31T04:14:54.126Z,20.20
2022-07-31T04:17:22.018Z,19.80
2022-07-31T04:19:49.993Z,20.10
2022-07-31T04:22:17.857Z,20.20
2022-07-31T04:24:46.898Z,20.20
2022-07-31T04:27:26.567Z,20.20
2022-07-31T04:29:55.663Z,20.20
2022-07-31T04:32:24.172Z,20.30
2022-07-31T04:35:00.982Z,20.20
2022-07-31T04:37:31.445Z,20.30
2022-07-31T04:40:00.172Z,20.30
2022-07-31T04:42:35.073Z,20.20
2022-07-31T04:45:12.774Z,20.30
2022-07-31T04:47:42.739Z,20.20
2022-07-31T04:50:10.914Z,20.20
2022-07-31T04:52:39.023Z,20.20
2022-07-31T04:55:12.123Z,20.20
2022-07-31T04:57:41.323Z,20.20
2022-07-31T05:00:10.514Z,20.40
2022-07-31T05:02:40.533Z,20.20
2022-07-31T05:05:11.077Z,20.80
2022-07-31T05:07:42.388Z,20.10
2022-07-31T05:10:35.993Z,20.20
2022-07-31T05:13:03.854Z,20.10
2022-07-31T05:15:33.670Z,20.10
2022-07-31T05:18:01.330Z,20.20
2022-07-31T05:21:10.325Z,20.60
2022-07-31T05:23:59.779Z,20.20
2022-07-31T05:26:45.800Z,20.30
2022-07-31T05:29:13.852Z,20.30
2022-07-31T05:31:59.382Z,20.20
2022-07-31T05:34:33.478Z,20.30
2022-07-31T05:37:02.068Z,20.30
2022-07-31T05:39:37.155Z,20.30
2022-07-31T05:42:26.099Z,20.30
2022-07-31T05:45:25.283Z,20.30
2022-07-31T05:47:53.407Z,18.80
2022-07-31T05:50:21.784Z,20.30
2022-07-31T05:52:52.461Z,20.50
2022-07-31T05:55:49.645Z,20.40
2022-07-31T05:58:59.421Z,20.50
2022-07-31T06:01:29.953Z,20.40
2022-07-31T06:03:57.874Z,20.80
2022-07-31T06:06:41.858Z,20.50
2022-07-31T06:09:16.349Z,20.60
2022-07-31T06:11:47.516Z,20.60
2022-07-31T06:14:15.488Z,20.80
2022-07-31T06:17:18.423Z,20.60
2022-07-31T06:19:47.570Z,20.70
2022-07-31T06:22:15.215Z,20.70
2022-07-31T06:24:43.500Z,20.70
2022-07-31T06:27:21.452Z,20.40
2022-07-31T06:29:59.401Z,20.80
2022-07-31T06:32:27.298Z,20.90
2022-07-31T06:34:55.506Z,21.00
2022-07-31T06:37:23.726Z,21.10
2022-07-31T06:39:55.790Z,21.10
2022-07-31T06:42:44.475Z,20.90
2022-07-31T06:45:41.661Z,21.10
2022-07-31T06:48:32.374Z,21.10
2022-07-31T06:51:29.896Z,21.20
2022-07-31T06:53:57.388Z,21.20
2022-07-31T06:56:25.280Z,22.00
2022-07-31T06:58:53.477Z,21.10
2022-07-31T07:01:21.510Z,21.40
2022-07-31T07:03:49.489Z,21.50
2022-07-31T07:06:17.221Z,21.50
2022-07-31T07:08:48.516Z,21.60
2022-07-31T07:11:21.489Z,21.70
2022-07-31T07:13:49.914Z,21.80
2022-07-31T07:16:46.025Z,21.90
2022-07-31T07:19:14.099Z,22.00
2022-07-31T07:21:43.772Z,22.10
2022-07-31T07:24:11.472Z,22.10
2022-07-31T07:26:46.416Z,22.10
2022-07-31T07:29:16.377Z,22.20
2022-07-31T07:31:44.694Z,22.20
2022-07-31T07:34:13.175Z,21.90
2022-07-31T07:36:41.070Z,22.40
2022-07-31T07:39:29.303Z,24.80
2022-07-31T07:41:57.394Z,22.70
2022-07-31T07:44:25.064Z,22.60
2022-07-31T07:46:53.340Z,22.60
2022-07-31T07:49:21.865Z,22.70
2022-07-31T07:52:14.650Z,22.80
2022-07-31T07:55:02.814Z,22.70
2022-07-31T07:57:49.377Z,22.70
2022-07-31T08:00:28.862Z,22.70
2022-07-31T08:03:47.468Z,24.00
2022-07-31T08:05:50.038Z,22.90
2022-07-31T08:08:17.931Z,23.10
2022-07-31T08:10:48.490Z,23.20
2022-07-31T08:13:23.518Z,23.20
2022-07-31T08:16:20.766Z,23.20
2022-07-31T08:18:51.983Z,22.80
2022-07-31T08:21:21.264Z,22.90
2022-07-31T08:23:49.124Z,22.80
2022-07-31T08:26:18.640Z,23.20
2022-07-31T08:28:49.796Z,22.80
2022-07-31T08:31:23.567Z,22.80
2022-07-31T08:34:10.932Z,22.80
2022-07-31T08:36:58.668Z,22.90
2022-07-31T08:39:26.524Z,23.00
2022-07-31T08:42:06.996Z,23.10
2022-07-31T08:44:42.438Z,23.20
2022-07-31T08:47:11.077Z,23.30
2022-07-31T08:49:46.694Z,23.50
2022-07-31T08:52:19.817Z,23.60
2022-07-31T08:54:57.000Z,23.60
2022-07-31T08:57:28.349Z,23.60
2022-07-31T09:00:05.507Z,23.50
2022-07-31T09:02:33.640Z,21.60
2022-07-31T09:05:22.917Z,23.50
2022-07-31T09:07:50.787Z,23.40
2022-07-31T09:10:21.536Z,23.60
2022-07-31T09:12:50.716Z,23.30
2022-07-31T09:15:23.941Z,23.10
2022-07-31T09:17:59.075Z,23.20
2022-07-31T09:20:30.489Z,23.20
2022-07-31T09:23:10.333Z,23.30
2022-07-31T09:25:58.188Z,23.30
2022-07-31T09:28:36.557Z,23.30
2022-07-31T09:31:04.995Z,23.30
2022-07-31T09:33:58.780Z,23.30
2022-07-31T09:36:49.429Z,23.30
2022-07-31T09:39:37.064Z,23.30
2022-07-31T09:42:55.487Z,23.30
2022-07-31T09:45:25.845Z,23.30
2022-07-31T09:48:15.139Z,23.30
2022-07-31T09:50:53.596Z,23.30
2022-07-31T09:53:21.654Z,23.30
2022-07-31T09:55:53.809Z,23.30
2022-07-31T09:58:22.463Z,23.30
2022-07-31T10:00:52.374Z,23.30
2022-07-31T10:03:23.080Z,23.30
2022-07-31T10:05:50.951Z,23.30
2022-07-31T10:08:19.693Z,23.30
2022-07-31T10:11:06.180Z,23.30
2022-07-31T10:13:51.225Z,23.30
2022-07-31T10:16:19.565Z,23.30
2022-07-31T10:18:54.406Z,23.30
2022-07-31T10:21:59.713Z,23.40
2022-07-31T10:24:33.518Z,23.50
2022-07-31T10:27:07.804Z,23.50
2022-07-31T10:29:41.692Z,23.60
2022-07-31T10:32:11.076Z,23.50
2022-07-31T10:34:59.209Z,23.70
2022-07-31T10:38:03.895Z,23.70
2022-07-31T10:40:52.846Z,23.70
2022-07-31T10:43:20.645Z,23.70
2022-07-31T10:46:35.688Z,23.70
2022-07-31T10:49:38.739Z,23.70
2022-07-31T10:52:33.798Z,23.80
2022-07-31T10:55:22.660Z,24.00
2022-07-31T10:58:17.053Z,24.20
2022-07-31T11:00:51.993Z,24.40
2022-07-31T11:03:41.915Z,24.70
2022-07-31T11:06:41.307Z,24.90
2022-07-31T11:09:28.857Z,25.10
2022-07-31T11:12:24.961Z,25.10
2022-07-31T11:15:25.129Z,25.00
2022-07-31T11:18:25.294Z,25.00
2022-07-31T11:21:17.797Z,24.90
2022-07-31T11:24:03.110Z,24.80
2022-07-31T11:26:32.758Z,24.70
2022-07-31T11:30:00.249Z,24.70
2022-07-31T11:32:01.502Z,24.60
2022-07-31T11:34:29.317Z,24.60
2022-07-31T11:36:57.010Z,24.60
2022-07-31T11:39:36.489Z,24.80
2022-07-31T11:42:05.076Z,24.80
2022-07-31T11:44:35.595Z,25.00
2022-07-31T11:47:03.513Z,25.00
2022-07-31T11:50:00.591Z,25.10
2022-07-31T11:52:31.284Z,25.10
2022-07-31T11:55:09.076Z,25.00
2022-07-31T11:57:50.917Z,25.00
2022-07-31T12:00:27.171Z,25.00
2022-07-31T12:02:57.968Z,24.90
2022-07-31T12:05:38.929Z,24.90
2022-07-31T12:08:07.694Z,24.90
2022-07-31T12:10:35.382Z,24.90
2022-07-31T12:13:02.817Z,24.80
2022-07-31T12:15:30.261Z,24.90
2022-07-31T12:18:02.048Z,25.00
2022-07-31T12:20:36.783Z,25.10
2022-07-31T12:23:05.883Z,25.10
2022-07-31T12:25:43.583Z,25.10
2022-07-31T12:28:13.035Z,25.10
2022-07-31T12:30:40.905Z,25.00
2022-07-31T12:33:12.032Z,25.00
2022-07-31T12:35:55.917Z,25.10
2022-07-31T12:38:45.530Z,25.20
2022-07-31T12:41:16.225Z,25.40
2022-07-31T12:43:51.801Z,25.60
2022-07-31T12:46:21.235Z,25.80
2022-07-31T12:48:48.921Z,26.10
2022-07-31T12:51:18.685Z,26.30
2022-07-31T12:53:48.084Z,26.50
2022-07-31T12:56:15.420Z,26.70
2022-07-31T12:58:42.868Z,26.90
2022-07-31T13:01:10.562Z,27.00
2022-07-31T13:03:45.921Z,27.10
2022-07-31T13:06:14.433Z,27.10
2022-07-31T13:08:43.871Z,27.00
2022-07-31T13:11:11.467Z,26.80
2022-07-31T13:13:38.963Z,26.70
2022-07-31T13:16:06.540Z,26.50
2022-07-31T13:18:35.756Z,26.40
2022-07-31T13:21:03.401Z,26.20
2022-07-31T13:23:30.987Z,26.10
2022-07-31T13:25:59.734Z,25.90
2022-07-31T13:28:27.354Z,25.90
2022-07-31T13:30:55.398Z,25.80
2022-07-31T13:33:22.848Z,25.70
2022-07-31T13:35:50.418Z,25.70
2022-07-31T13:38:21.102Z,25.60
2022-07-31T13:41:07.125Z,25.70
2022-07-31T13:43:34.985Z,25.90
2022-07-31T13:46:03.687Z,26.10
2022-07-31T13:48:31.435Z,26.30
2022-07-31T13:50:59.232Z,26.40
2022-07-31T13:53:26.760Z,26.40
2022-07-31T13:55:54.918Z,26.40
2022-07-31T13:58:23.202Z,26.40
2022-07-31T14:00:51.090Z,26.30
2022-07-31T14:03:20.501Z,26.30
2022-07-31T14:05:48.944Z,26.30
2022-07-31T14:08:32.906Z,26.30
2022-07-31T14:11:05.062Z,26.30
2022-07-31T14:13:42.351Z,26.30
2022-07-31T14:16:10.236Z,26.40
2022-07-31T14:18:38.898Z,26.50
2022-07-31T14:21:07.224Z,26.60
2022-07-31T14:23:40.701Z,26.60
2022-07-31T14:26:09.241Z,26.70
2022-07-31T14:28:36.735Z,26.80
2022-07-31T14:31:04.274Z,27.00
2022-07-31T14:33:32.292Z,27.30
2022-07-31T14:36:01.259Z,27.60
2022-07-31T14:38:28.794Z,27.50
2022-07-31T14:40:56.822Z,28.20
2022-07-31T14:43:24.426Z,28.50
2022-07-31T14:45:52.358Z,28.90
2022-07-31T14:48:20.030Z,29.30
2022-07-31T14:50:47.628Z,29.40
2022-07-31T14:53:15.081Z,29.30
2022-07-31T14:55:42.684Z,29.20
2022-07-31T14:58:10.262Z,28.80
2022-07-31T15:00:37.738Z,29.30
2022-07-31T15:03:05.103Z,29.70
2022-07-31T15:06:41.513Z,29.90
2022-07-31T15:08:20.528Z,30.10
2022-07-31T15:10:47.958Z,30.20
2022-07-31T15:13:16.120Z,30.20
2022-07-31T15:15:48.435Z,30.10
2022-07-31T15:18:17.002Z,29.90
2022-07-31T15:20:44.662Z,29.90
2022-07-31T15:23:12.376Z,30.20
2022-07-31T15:25:40.081Z,30.50
2022-07-31T15:28:07.466Z,30.60
2022-07-31T15:30:35.047Z,30.80
2022-07-31T15:33:03.839Z,31.20
2022-07-31T15:35:31.364Z,31.10
2022-07-31T15:37:59.502Z,30.80
2022-07-31T15:40:26.943Z,30.50
2022-07-31T15:42:55.035Z,30.20
2022-07-31T15:45:22.747Z,29.80
2022-07-31T15:47:50.602Z,29.40
2022-07-31T15:50:21.731Z,29.00
2022-07-31T15:52:50.450Z,28.70
2022-07-31T15:55:19.117Z,28.40
2022-07-31T15:57:49.444Z,28.40
2022-07-31T16:00:19.036Z,28.60
2022-07-31T16:02:46.513Z,29.00
2022-07-31T16:05:35.812Z,29.40
2022-07-31T16:08:28.477Z,29.70
2022-07-31T16:10:55.832Z,30.20
2022-07-31T16:13:24.214Z,30.80
2022-07-31T16:15:52.465Z,30.70
2022-07-31T16:18:20.234Z,30.30
2022-07-31T16:20:48.039Z,30.00
2022-07-31T16:23:15.423Z,29.70
2022-07-31T16:25:44.883Z,29.80
2022-07-31T16:28:13.593Z,30.10
2022-07-31T16:30:42.359Z,30.20
2022-07-31T16:33:11.548Z,30.10
2022-07-31T16:35:39.055Z,30.00
2022-07-31T16:38:07.987Z,30.40
2022-07-31T16:40:35.478Z,31.00
2022-07-31T16:43:49.924Z,31.60
2022-07-31T16:45:51.743Z,31.80
2022-07-31T16:48:19.410Z,32.00
2022-07-31T16:50:48.279Z,31.90
2022-07-31T16:54:13.379Z,31.90
2022-07-31T16:56:15.031Z,32.00
2022-07-31T16:58:43.745Z,32.10
2022-07-31T17:01:56.795Z,32.00
2022-07-31T17:04:04.282Z,31.50
2022-07-31T17:06:37.513Z,30.70
2022-07-31T17:09:16.346Z,30.70
2022-07-31T17:11:50.354Z,29.50
2022-07-31T17:14:19.077Z,29.00
2022-07-31T17:16:48.659Z,28.70
2022-07-31T17:19:35.930Z,28.40
2022-07-31T17:22:05.859Z,28.00
2022-07-31T17:24:39.213Z,28.00
2022-07-31T17:27:08.101Z,27.90
2022-07-31T17:29:36.825Z,27.70
2022-07-31T17:32:04.499Z,27.60
2022-07-31T17:34:33.476Z,27.50
2022-07-31T17:37:01.323Z,27.40
2022-07-31T17:39:31.062Z,27.30
2022-07-31T17:41:59.472Z,27.30
2022-07-31T17:44:28.312Z,27.20
2022-07-31T17:46:57.997Z,27.20
2022-07-31T17:49:26.926Z,27.10
2022-07-31T17:51:58.643Z,27.00
2022-07-31T17:54:28.510Z,26.90
2022-07-31T17:57:01.554Z,26.80
2022-07-31T17:59:30.689Z,26.70
2022-07-31T18:02:00.478Z,26.60
2022-07-31T18:04:29.152Z,26.50
2022-07-31T18:06:57.468Z,26.40
2022-07-31T18:09:25.127Z,26.40
2022-07-31T18:11:54.183Z,26.30
2022-07-31T18:14:24.993Z,26.30
2022-07-31T18:16:53.189Z,26.30
2022-07-31T18:19:23.034Z,26.30
2022-07-31T18:21:51.283Z,26.30
2022-07-31T18:24:19.320Z,26.30
2022-07-31T18:26:47.411Z,26.30
2022-07-31T18:29:16.936Z,26.30
2022-07-31T18:31:45.536Z,27.20
2022-07-31T18:34:13.221Z,26.40
2022-07-31T18:36:40.724Z,26.40
2022-07-31T18:39:08.575Z,26.40
2022-07-31T18:41:37.309Z,26.30
2022-07-31T18:44:05.120Z,26.40
2022-07-31T18:46:32.745Z,26.30
2022-07-31T18:49:00.809Z,26.30
2022-07-31T18:51:29.658Z,26.20
2022-07-31T18:53:57.852Z,26.20
2022-07-31T18:56:26.127Z,26.10
2022-07-31T18:58:54.393Z,26.10
2022-07-31T19:01:22.413Z,26.10
2022-07-31T19:03:51.689Z,26.10
2022-07-31T19:06:19.582Z,26.10
2022-07-31T19:08:50.334Z,26.00
2022-07-31T19:11:20.945Z,26.10
2022-07-31T19:13:48.600Z,26.00
2022-07-31T19:16:17.582Z,26.00
2022-07-31T19:18:45.605Z,26.00
2022-07-31T19:21:41.568Z,25.80
2022-07-31T19:24:08.037Z,25.80
2022-07-31T19:26:36.495Z,25.60
2022-07-31T19:29:04.204Z,25.50
2022-07-31T19:31:31.741Z,25.40
2022-07-31T19:33:59.315Z,25.30
2022-07-31T19:36:26.959Z,25.20
2022-07-31T19:38:57.734Z,25.20
2022-07-31T19:41:25.110Z,25.10
2022-07-31T19:43:52.656Z,25.00
2022-07-31T19:46:20.153Z,24.90
2022-07-31T19:48:47.804Z,24.80
2022-07-31T19:51:16.314Z,24.70
2022-07-31T19:53:44.619Z,24.60
2022-07-31T19:56:18.142Z,24.50
2022-07-31T19:58:48.570Z,24.40
2022-07-31T20:01:16.648Z,24.40
2022-07-31T20:03:44.357Z,24.30
2022-07-31T20:06:11.889Z,24.20
2022-07-31T20:08:39.777Z,24.10
2022-07-31T20:11:07.787Z,24.00
2022-07-31T20:13:38.859Z,24.00
2022-07-31T20:16:06.734Z,23.90
2022-07-31T20:18:34.364Z,23.80
2022-07-31T20:21:03.609Z,23.80
2022-07-31T20:23:34.253Z,23.70
2022-07-31T20:26:02.200Z,23.60
2022-07-31T20:28:29.815Z,23.60
2022-07-31T20:30:58.344Z,23.50
2022-07-31T20:33:25.772Z,23.50
2022-07-31T20:35:53.280Z,23.40
2022-07-31T20:38:22.397Z,23.40
2022-07-31T20:40:54.733Z,23.30
2022-07-31T20:43:24.469Z,23.30
2022-07-31T20:45:52.732Z,23.30
2022-07-31T20:48:24.842Z,23.20
2022-07-31T20:50:53.052Z,23.20
2022-07-31T20:53:21.990Z,23.10
2022-07-31T20:55:50.687Z,23.10
2022-07-31T20:58:19.168Z,23.00
2022-07-31T21:00:47.707Z,22.80
2022-07-31T21:03:17.215Z,22.60
2022-07-31T21:05:45.643Z,22.70
2022-07-31T21:08:13.345Z,22.60
2022-07-31T21:10:40.918Z,22.60
2022-07-31T21:13:08.572Z,22.50
2022-07-31T21:15:41.699Z,22.40
2022-07-31T21:18:14.342Z,22.40
2022-07-31T21:20:51.947Z,22.30
2022-07-31T21:23:24.478Z,22.20
2022-07-31T21:25:52.551Z,22.10
2022-07-31T21:28:21.151Z,22.00
2022-07-31T21:30:48.764Z,22.00
2022-07-31T21:33:16.396Z,21.90
2022-07-31T21:35:44.263Z,21.90
2022-07-31T21:38:12.570Z,21.80
2022-07-31T21:40:40.839Z,21.80
2022-07-31T21:43:09.255Z,21.70
2022-07-31T21:45:50.434Z,21.70
2022-07-31T21:48:25.083Z,21.70
2022-07-31T21:50:53.652Z,21.60
2022-07-31T21:53:21.502Z,21.60
2022-07-31T21:55:49.186Z,21.40
2022-07-31T21:58:16.736Z,22.40
2022-07-31T22:00:44.603Z,21.40
2022-07-31T22:03:14.578Z,21.30
2022-07-31T22:06:00.907Z,21.30
2022-07-31T22:08:28.813Z,21.30
2022-07-31T22:10:56.584Z,21.30
2022-07-31T22:13:24.203Z,21.30
2022-07-31T22:15:59.891Z,21.30
2022-07-31T22:18:32.736Z,21.30
2022-07-31T22:21:01.257Z,21.30
2022-07-31T22:23:29.090Z,21.30
2022-07-31T22:25:57.058Z,21.30
2022-07-31T22:28:26.067Z,21.30
2022-07-31T22:30:55.187Z,21.30
2022-07-31T22:33:22.920Z,21.30
2022-07-31T22:35:59.828Z,21.20
2022-07-31T22:38:29.317Z,21.20
2022-07-31T22:40:57.452Z,21.20
2022-07-31T22:44:11.175Z,21.30
2022-07-31T22:46:12.948Z,21.20
2022-07-31T22:48:41.069Z,21.20
2022-07-31T22:51:12.800Z,21.10
2022-07-31T22:53:42.662Z,21.00
2022-07-31T22:56:10.458Z,21.00
2022-07-31T22:58:38.144Z,21.00
2022-07-31T23:01:05.615Z,21.00
2022-07-31T23:03:33.138Z,20.90
2022-07-31T23:06:29.535Z,20.80
2022-07-31T23:08:54.996Z,21.40
2022-07-31T23:11:23.311Z,20.70
2022-07-31T23:13:51.342Z,20.70
2022-07-31T23:16:20.275Z,20.70
2022-07-31T23:18:48.381Z,20.70
2022-07-31T23:21:16.874Z,20.60
2022-07-31T23:23:48.592Z,20.60
2022-07-31T23:26:18.906Z,20.50
2022-07-31T23:28:46.976Z,20.50
2022-07-31T23:31:14.740Z,20.50
2022-07-31T23:33:42.451Z,20.50
2022-07-31T23:36:10.226Z,20.50
2022-07-31T23:38:38.121Z,20.50
2022-07-31T23:41:05.671Z,20.50
2022-07-31T23:43:33.236Z,20.60
2022-07-31T23:46:00.774Z,20.60
2022-07-31T23:48:29.966Z,20.60
2022-07-31T23:50:58.164Z,20.60
2022-07-31T23:53:25.617Z,20.60
2022-07-31T23:55:53.170Z,20.50
2022-07-31T23:58:20.762Z,20.60
